createdAt,value
2019-01-06T00:00:01.093Z,3.70
2019-01-06T00:02:36.643Z,3.00
2019-01-06T00:07:19.342Z,3.30
2019-01-06T00:10:07.363Z,3.17
2019-01-06T00:12:42.348Z,5.47
2019-01-06T00:15:17.957Z,3.53
2019-01-06T00:18:03.414Z,4.27
2019-01-06T00:20:48.302Z,3.70
2019-01-06T00:25:25.576Z,3.97
2019-01-06T00:28:01.643Z,4.13
2019-01-06T00:30:39.979Z,2.50
2019-01-06T00:35:27.393Z,2.30
2019-01-06T00:38:03.121Z,4.80
2019-01-06T00:40:42.546Z,3.63
2019-01-06T00:43:21.486Z,4.40
2019-01-06T00:45:57.974Z,3.00
2019-01-06T00:48:33.633Z,3.17
2019-01-06T00:51:14.287Z,2.70
2019-01-06T00:53:51.516Z,3.13
2019-01-06T00:56:30.186Z,3.90
2019-01-06T00:59:19.436Z,3.40
2019-01-06T01:03:57.882Z,2.57
2019-01-06T01:06:33.470Z,2.10
2019-01-06T01:11:31.070Z,2.07
2019-01-06T01:14:06.440Z,2.43
2019-01-06T01:16:43.651Z,2.33
2019-01-06T01:19:28.066Z,2.80
2019-01-06T01:22:11.875Z,2.27
2019-01-06T01:26:50.898Z,2.20
2019-01-06T01:29:26.758Z,1.73
2019-01-06T01:32:02.432Z,1.90
2019-01-06T01:34:47.111Z,2.03
2019-01-06T01:37:42.206Z,2.00
2019-01-06T01:40:33.277Z,1.73
2019-01-06T01:43:08.884Z,1.37
2019-01-06T01:45:48.539Z,1.30
2019-01-06T01:48:24.280Z,1.87
2019-01-06T01:52:05.603Z,2.40
2019-01-06T01:56:46.746Z,1.70
2019-01-06T01:59:25.891Z,1.15
2019-01-06T02:02:15.761Z,1.93
2019-01-06T02:04:53.067Z,1.67
2019-01-06T02:09:37.532Z,1.57
2019-01-06T02:12:35.163Z,1.70
2019-01-06T02:15:13.529Z,1.60
2019-01-06T02:19:55.348Z,1.40
2019-01-06T02:22:32.598Z,1.67
2019-01-06T02:25:26.915Z,1.83
2019-01-06T02:28:13.592Z,1.73
2019-01-06T02:30:53.077Z,1.47
2019-01-06T02:33:33.803Z,1.63
2019-01-06T02:36:14.405Z,1.57
2019-01-06T02:38:50.776Z,1.50
2019-01-06T02:41:27.328Z,1.80
2019-01-06T02:44:18.446Z,1.40
2019-01-06T02:47:01.091Z,1.23
2019-01-06T02:49:37.175Z,1.82
2019-01-06T02:54:18.897Z,1.77
2019-01-06T02:56:59.580Z,0.90
2019-01-06T03:01:38.186Z,1.25
2019-01-06T03:04:18.796Z,1.30
2019-01-06T03:07:10.265Z,1.27
2019-01-06T03:11:54.912Z,1.50
2019-01-06T03:24:28.167Z,1.30
2019-01-06T03:27:10.978Z,0.90
2019-01-06T03:38:48.097Z,1.37
2019-01-06T03:41:57.144Z,1.40
2019-01-06T03:44:37.008Z,1.30
2019-01-06T03:47:20.379Z,1.30
2019-01-06T03:51:58.681Z,1.57
2019-01-06T03:54:36.221Z,1.20
2019-01-06T03:57:21.156Z,1.10
2019-01-06T04:02:01.655Z,1.30
2019-01-06T04:04:46.811Z,1.07
2019-01-06T04:07:30.792Z,1.30
2019-01-06T04:10:08.594Z,1.00
2019-01-06T04:12:46.656Z,1.27
2019-01-06T04:28:52.636Z,1.17
2019-01-06T04:49:45.284Z,0.90
